METAR Data
IDs: Format: Raw Decoded Include TAF

Data at: 1353 UTC 20 Oct 2021

LIMF 201320Z 07004KT 020V100 5000 BR NSC 17/10 Q1023